sensor_id;sensor_type;location;lat;lon;timestamp;temperature;humidity
11079;DHT22;5592;49.234;7.268;2023-07-20T00:01:21;12.60;99.90
11079;DHT22;5592;49.234;7.268;2023-07-20T00:03:47;12.60;99.90
11079;DHT22;5592;49.234;7.268;2023-07-20T00:06:23;12.50;99.90
11079;DHT22;5592;49.234;7.268;2023-07-20T00:08:50;12.40;99.90
11079;DHT22;5592;49.234;7.268;2023-07-20T00:11:16;12.30;99.90
11079;DHT22;5592;49.234;7.268;2023-07-20T00:13:41;12.20;99.90
11079;DHT22;5592;49.234;7.268;2023-07-20T00:16:07;12.20;99.90
11079;DHT22;5592;49.234;7.268;2023-07-20T00:18:33;12.20;99.90
11079;DHT22;5592;49.234;7.268;2023-07-20T00:20:58;12.20;99.90
11079;DHT22;5592;49.234;7.268;2023-07-20T00:23:27;12.30;99.90
11079;DHT22;5592;49.234;7.268;2023-07-20T00:25:53;12.30;99.90
11079;DHT22;5592;49.234;7.268;2023-07-20T00:28:19;12.20;99.90
11079;DHT22;5592;49.234;7.268;2023-07-20T00:30:45;12.20;99.90
11079;DHT22;5592;49.234;7.268;2023-07-20T00:33:11;12.10;99.90
11079;DHT22;5592;49.234;7.268;2023-07-20T00:35:38;12.00;99.90
11079;DHT22;5592;49.234;7.268;2023-07-20T00:38:05;11.90;99.90
11079;DHT22;5592;49.234;7.268;2023-07-20T00:40:37;11.90;99.90
11079;DHT22;5592;49.234;7.268;2023-07-20T00:43:03;11.90;99.90
11079;DHT22;5592;49.234;7.268;2023-07-20T00:45:29;11.90;99.90
11079;DHT22;5592;49.234;7.268;2023-07-20T00:47:56;11.80;99.90
11079;DHT22;5592;49.234;7.268;2023-07-20T00:50:23;11.80;99.90
11079;DHT22;5592;49.234;7.268;2023-07-20T00:52:49;11.70;99.90
11079;DHT22;5592;49.234;7.268;2023-07-20T00:55:24;11.60;99.90
11079;DHT22;5592;49.234;7.268;2023-07-20T00:57:50;11.50;99.90
11079;DHT22;5592;49.234;7.268;2023-07-20T01:00:16;11.50;99.90
11079;DHT22;5592;49.234;7.268;2023-07-20T01:02:42;11.40;99.90
11079;DHT22;5592;49.234;7.268;2023-07-20T01:05:08;11.40;99.90
11079;DHT22;5592;49.234;7.268;2023-07-20T01:07:38;11.40;99.90
11079;DHT22;5592;49.234;7.268;2023-07-20T01:12:52;11.30;99.90
11079;DHT22;5592;49.234;7.268;2023-07-20T01:15:18;11.30;99.90
11079;DHT22;5592;49.234;7.268;2023-07-20T01:17:44;11.20;99.90
11079;DHT22;5592;49.234;7.268;2023-07-20T01:20:13;11.20;99.90
11079;DHT22;5592;49.234;7.268;2023-07-20T01:33:24;11.10;99.90
11079;DHT22;5592;49.234;7.268;2023-07-20T01:36:01;11.10;99.90
11079;DHT22;5592;49.234;7.268;2023-07-20T01:38:27;11.00;99.90
11079;DHT22;5592;49.234;7.268;2023-07-20T01:40:53;11.10;99.90
11079;DHT22;5592;49.234;7.268;2023-07-20T01:43:18;11.20;99.90
11079;DHT22;5592;49.234;7.268;2023-07-20T01:45:44;11.10;99.90
11079;DHT22;5592;49.234;7.268;2023-07-20T01:48:10;11.10;99.90
11079;DHT22;5592;49.234;7.268;2023-07-20T01:50:37;11.00;99.90
11079;DHT22;5592;49.234;7.268;2023-07-20T01:53:02;11.00;99.90
11079;DHT22;5592;49.234;7.268;2023-07-20T01:55:28;10.90;99.90
11079;DHT22;5592;49.234;7.268;2023-07-20T01:57:55;10.90;99.90
11079;DHT22;5592;49.234;7.268;2023-07-20T02:00:20;11.00;99.90
11079;DHT22;5592;49.234;7.268;2023-07-20T02:02:49;11.00;99.90
11079;DHT22;5592;49.234;7.268;2023-07-20T02:05:15;11.00;99.90
11079;DHT22;5592;49.234;7.268;2023-07-20T02:07:41;11.00;99.90
11079;DHT22;5592;49.234;7.268;2023-07-20T02:10:07;11.10;99.90
11079;DHT22;5592;49.234;7.268;2023-07-20T02:12:33;11.10;99.90
11079;DHT22;5592;49.234;7.268;2023-07-20T02:14:58;11.10;99.90
11079;DHT22;5592;49.234;7.268;2023-07-20T02:17:24;11.20;99.90
11079;DHT22;5592;49.234;7.268;2023-07-20T02:19:53;11.20;99.90
11079;DHT22;5592;49.234;7.268;2023-07-20T02:22:19;11.10;99.90
11079;DHT22;5592;49.234;7.268;2023-07-20T02:24:45;11.10;99.90
11079;DHT22;5592;49.234;7.268;2023-07-20T02:27:10;11.00;99.90
11079;DHT22;5592;49.234;7.268;2023-07-20T02:29:36;10.90;99.90
11079;DHT22;5592;49.234;7.268;2023-07-20T02:32:02;10.90;99.90
11079;DHT22;5592;49.234;7.268;2023-07-20T02:34:27;10.90;99.90
11079;DHT22;5592;49.234;7.268;2023-07-20T02:36:54;11.00;99.90
11079;DHT22;5592;49.234;7.268;2023-07-20T02:39:22;11.00;99.90
11079;DHT22;5592;49.234;7.268;2023-07-20T02:41:47;11.00;99.90
11079;DHT22;5592;49.234;7.268;2023-07-20T02:44:14;11.00;99.90
11079;DHT22;5592;49.234;7.268;2023-07-20T02:46:40;11.10;99.90
11079;DHT22;5592;49.234;7.268;2023-07-20T02:49:06;11.20;99.90
11079;DHT22;5592;49.234;7.268;2023-07-20T02:51:31;11.20;99.90
11079;DHT22;5592;49.234;7.268;2023-07-20T02:53:57;11.10;99.90
11079;DHT22;5592;49.234;7.268;2023-07-20T02:56:23;11.10;99.90
11079;DHT22;5592;49.234;7.268;2023-07-20T02:58:48;11.10;99.90
11079;DHT22;5592;49.234;7.268;2023-07-20T03:01:14;11.10;99.90
11079;DHT22;5592;49.234;7.268;2023-07-20T03:03:41;11.10;99.90
11079;DHT22;5592;49.234;7.268;2023-07-20T03:06:13;11.10;99.90
11079;DHT22;5592;49.234;7.268;2023-07-20T03:08:40;11.20;99.90
11079;DHT22;5592;49.234;7.268;2023-07-20T03:11:07;11.10;99.90
11079;DHT22;5592;49.234;7.268;2023-07-20T03:13:33;11.10;99.90
11079;DHT22;5592;49.234;7.268;2023-07-20T03:15:58;11.10;99.90
11079;DHT22;5592;49.234;7.268;2023-07-20T03:18:24;11.10;99.90
11079;DHT22;5592;49.234;7.268;2023-07-20T03:20:50;11.10;99.90
11079;DHT22;5592;49.234;7.268;2023-07-20T03:23:15;11.10;99.90
11079;DHT22;5592;49.234;7.268;2023-07-20T03:25:42;11.00;99.90
11079;DHT22;5592;49.234;7.268;2023-07-20T03:28:07;11.00;99.90
11079;DHT22;5592;49.234;7.268;2023-07-20T03:30:34;10.80;99.90
11079;DHT22;5592;49.234;7.268;2023-07-20T03:32:59;10.80;99.90
11079;DHT22;5592;49.234;7.268;2023-07-20T03:35:25;10.80;99.90
11079;DHT22;5592;49.234;7.268;2023-07-20T03:37:52;10.70;99.90
11079;DHT22;5592;49.234;7.268;2023-07-20T03:40:17;10.70;99.90
11079;DHT22;5592;49.234;7.268;2023-07-20T03:42:43;10.60;99.90
11079;DHT22;5592;49.234;7.268;2023-07-20T03:45:09;10.60;99.90
11079;DHT22;5592;49.234;7.268;2023-07-20T03:47:34;10.50;99.90
11079;DHT22;5592;49.234;7.268;2023-07-20T03:50:00;10.50;99.90
11079;DHT22;5592;49.234;7.268;2023-07-20T03:52:26;10.50;99.90
11079;DHT22;5592;49.234;7.268;2023-07-20T03:54:52;10.50;99.90
11079;DHT22;5592;49.234;7.268;2023-07-20T03:57:17;10.40;99.90
11079;DHT22;5592;49.234;7.268;2023-07-20T03:59:46;10.40;99.90
11079;DHT22;5592;49.234;7.268;2023-07-20T04:02:12;10.40;99.90
11079;DHT22;5592;49.234;7.268;2023-07-20T04:04:37;10.40;99.90
11079;DHT22;5592;49.234;7.268;2023-07-20T04:07:03;10.40;99.90
11079;DHT22;5592;49.234;7.268;2023-07-20T04:09:31;10.40;99.90
11079;DHT22;5592;49.234;7.268;2023-07-20T04:11:56;10.40;99.90
11079;DHT22;5592;49.234;7.268;2023-07-20T04:14:22;10.40;99.90
11079;DHT22;5592;49.234;7.268;2023-07-20T04:16:47;10.50;99.90
11079;DHT22;5592;49.234;7.268;2023-07-20T04:19:13;10.50;99.90
11079;DHT22;5592;49.234;7.268;2023-07-20T04:21:42;10.50;99.90
11079;DHT22;5592;49.234;7.268;2023-07-20T04:24:07;10.60;99.90
11079;DHT22;5592;49.234;7.268;2023-07-20T04:26:33;10.70;99.90
11079;DHT22;5592;49.234;7.268;2023-07-20T04:28:58;10.70;99.90
11079;DHT22;5592;49.234;7.268;2023-07-20T04:31:25;10.70;99.90
11079;DHT22;5592;49.234;7.268;2023-07-20T04:33:50;10.80;99.90
11079;DHT22;5592;49.234;7.268;2023-07-20T04:36:16;10.90;99.90
11079;DHT22;5592;49.234;7.268;2023-07-20T04:38:45;10.90;99.90
11079;DHT22;5592;49.234;7.268;2023-07-20T04:41:11;11.00;99.90
11079;DHT22;5592;49.234;7.268;2023-07-20T04:43:43;11.10;99.90
11079;DHT22;5592;49.234;7.268;2023-07-20T04:46:10;11.20;99.90
11079;DHT22;5592;49.234;7.268;2023-07-20T04:48:36;11.30;99.90
11079;DHT22;5592;49.234;7.268;2023-07-20T04:51:02;11.50;99.90
11079;DHT22;5592;49.234;7.268;2023-07-20T04:53:28;11.80;99.90
11079;DHT22;5592;49.234;7.268;2023-07-20T04:55:53;12.00;99.90
11079;DHT22;5592;49.234;7.268;2023-07-20T04:58:21;12.10;99.90
11079;DHT22;5592;49.234;7.268;2023-07-20T05:00:48;12.40;99.90
11079;DHT22;5592;49.234;7.268;2023-07-20T05:03:14;13.10;99.90
11079;DHT22;5592;49.234;7.268;2023-07-20T05:05:39;13.80;99.90
11079;DHT22;5592;49.234;7.268;2023-07-20T05:08:05;14.50;99.90
11079;DHT22;5592;49.234;7.268;2023-07-20T05:10:31;15.20;99.90
11079;DHT22;5592;49.234;7.268;2023-07-20T05:12:58;16.20;99.90
11079;DHT22;5592;49.234;7.268;2023-07-20T05:15:24;17.60;99.90
11079;DHT22;5592;49.234;7.268;2023-07-20T05:17:49;18.70;99.90
11079;DHT22;5592;49.234;7.268;2023-07-20T05:20:15;19.80;99.90
11079;DHT22;5592;49.234;7.268;2023-07-20T05:22:41;20.90;99.90
11079;DHT22;5592;49.234;7.268;2023-07-20T05:25:10;21.90;99.90
11079;DHT22;5592;49.234;7.268;2023-07-20T05:27:37;22.60;99.90
11079;DHT22;5592;49.234;7.268;2023-07-20T05:30:03;23.30;99.90
11079;DHT22;5592;49.234;7.268;2023-07-20T05:32:29;23.90;99.90
11079;DHT22;5592;49.234;7.268;2023-07-20T05:34:59;24.60;99.90
11079;DHT22;5592;49.234;7.268;2023-07-20T05:37:25;25.20;99.90
11079;DHT22;5592;49.234;7.268;2023-07-20T05:39:51;25.90;99.90
11079;DHT22;5592;49.234;7.268;2023-07-20T05:42:16;26.50;99.90
11079;DHT22;5592;49.234;7.268;2023-07-20T05:44:42;26.70;99.90
11079;DHT22;5592;49.234;7.268;2023-07-20T05:47:08;27.20;99.90
11079;DHT22;5592;49.234;7.268;2023-07-20T05:49:35;27.50;99.90
11079;DHT22;5592;49.234;7.268;2023-07-20T05:52:00;27.80;99.90
11079;DHT22;5592;49.234;7.268;2023-07-20T05:54:27;28.30;99.90
11079;DHT22;5592;49.234;7.268;2023-07-20T05:56:52;28.60;99.90
11079;DHT22;5592;49.234;7.268;2023-07-20T05:59:18;29.10;99.90
11079;DHT22;5592;49.234;7.268;2023-07-20T06:01:49;29.60;99.90
11079;DHT22;5592;49.234;7.268;2023-07-20T06:04:15;29.70;99.90
11079;DHT22;5592;49.234;7.268;2023-07-20T06:06:41;29.80;99.90
11079;DHT22;5592;49.234;7.268;2023-07-20T06:09:07;30.10;99.70
11079;DHT22;5592;49.234;7.268;2023-07-20T06:11:38;30.50;98.50
11079;DHT22;5592;49.234;7.268;2023-07-20T06:14:04;30.50;97.90
11079;DHT22;5592;49.234;7.268;2023-07-20T06:16:30;31.00;97.20
11079;DHT22;5592;49.234;7.268;2023-07-20T06:18:56;30.40;97.00
11079;DHT22;5592;49.234;7.268;2023-07-20T06:21:22;30.80;96.70
11079;DHT22;5592;49.234;7.268;2023-07-20T06:23:48;31.90;95.00
11079;DHT22;5592;49.234;7.268;2023-07-20T06:26:13;32.60;93.40
11079;DHT22;5592;49.234;7.268;2023-07-20T06:28:39;32.00;94.90
11079;DHT22;5592;49.234;7.268;2023-07-20T06:31:05;32.60;93.10
11079;DHT22;5592;49.234;7.268;2023-07-20T06:33:30;33.00;93.00
11079;DHT22;5592;49.234;7.268;2023-07-20T06:35:56;32.70;92.30
11079;DHT22;5592;49.234;7.268;2023-07-20T06:38:22;32.90;92.00
11079;DHT22;5592;49.234;7.268;2023-07-20T06:40:49;33.20;92.80
11079;DHT22;5592;49.234;7.268;2023-07-20T06:43:15;33.70;91.40
11079;DHT22;5592;49.234;7.268;2023-07-20T06:45:41;33.90;91.10
11079;DHT22;5592;49.234;7.268;2023-07-20T06:48:07;34.30;91.20
11079;DHT22;5592;49.234;7.268;2023-07-20T06:50:33;34.10;89.70
11079;DHT22;5592;49.234;7.268;2023-07-20T06:53:08;34.60;87.50
11079;DHT22;5592;49.234;7.268;2023-07-20T06:55:42;34.70;88.80
11079;DHT22;5592;49.234;7.268;2023-07-20T06:58:14;34.50;89.60
11079;DHT22;5592;49.234;7.268;2023-07-20T07:00:44;34.40;87.30
11079;DHT22;5592;49.234;7.268;2023-07-20T07:03:10;34.60;85.90
11079;DHT22;5592;49.234;7.268;2023-07-20T07:05:36;34.60;86.00
11079;DHT22;5592;49.234;7.268;2023-07-20T07:08:04;34.80;86.10
11079;DHT22;5592;49.234;7.268;2023-07-20T07:10:30;34.80;85.20
11079;DHT22;5592;49.234;7.268;2023-07-20T07:12:55;35.30;83.40
11079;DHT22;5592;49.234;7.268;2023-07-20T07:15:22;35.60;80.60
11079;DHT22;5592;49.234;7.268;2023-07-20T07:17:47;35.60;81.80
11079;DHT22;5592;49.234;7.268;2023-07-20T07:20:13;35.90;80.20
11079;DHT22;5592;49.234;7.268;2023-07-20T07:22:39;35.20;82.20
11079;DHT22;5592;49.234;7.268;2023-07-20T07:25:05;35.40;80.90
11079;DHT22;5592;49.234;7.268;2023-07-20T07:27:30;35.80;80.90
11079;DHT22;5592;49.234;7.268;2023-07-20T07:29:56;36.10;78.90
11079;DHT22;5592;49.234;7.268;2023-07-20T07:32:22;36.00;77.90
11079;DHT22;5592;49.234;7.268;2023-07-20T07:34:47;35.50;79.90
11079;DHT22;5592;49.234;7.268;2023-07-20T07:37:14;36.00;77.90
11079;DHT22;5592;49.234;7.268;2023-07-20T07:39:39;36.30;73.90
11079;DHT22;5592;49.234;7.268;2023-07-20T07:42:05;36.30;75.80
11079;DHT22;5592;49.234;7.268;2023-07-20T07:44:31;36.30;74.90
11079;DHT22;5592;49.234;7.268;2023-07-20T07:46:57;36.20;73.90
11079;DHT22;5592;49.234;7.268;2023-07-20T07:49:23;35.80;75.50
11079;DHT22;5592;49.234;7.268;2023-07-20T07:51:50;36.20;73.60
11079;DHT22;5592;49.234;7.268;2023-07-20T07:54:16;36.30;71.80
11079;DHT22;5592;49.234;7.268;2023-07-20T07:56:41;36.10;72.10
11079;DHT22;5592;49.234;7.268;2023-07-20T07:59:08;35.90;72.10
11079;DHT22;5592;49.234;7.268;2023-07-20T08:01:33;35.90;73.50
11079;DHT22;5592;49.234;7.268;2023-07-20T08:03:59;36.60;69.60
11079;DHT22;5592;49.234;7.268;2023-07-20T08:06:25;36.60;71.70
11079;DHT22;5592;49.234;7.268;2023-07-20T08:08:51;35.70;72.60
11079;DHT22;5592;49.234;7.268;2023-07-20T08:11:17;36.00;74.00
11079;DHT22;5592;49.234;7.268;2023-07-20T08:13:43;36.20;70.70
11079;DHT22;5592;49.234;7.268;2023-07-20T08:16:09;36.70;71.10
11079;DHT22;5592;49.234;7.268;2023-07-20T08:18:35;37.00;69.90
11079;DHT22;5592;49.234;7.268;2023-07-20T08:21:02;36.20;71.90
11079;DHT22;5592;49.234;7.268;2023-07-20T08:23:28;36.20;72.30
11079;DHT22;5592;49.234;7.268;2023-07-20T08:25:54;34.00;72.00
11079;DHT22;5592;49.234;7.268;2023-07-20T08:28:20;34.50;73.20
11079;DHT22;5592;49.234;7.268;2023-07-20T08:30:49;35.10;74.70
11079;DHT22;5592;49.234;7.268;2023-07-20T08:33:16;35.60;72.60
11079;DHT22;5592;49.234;7.268;2023-07-20T08:35:43;35.90;70.80
11079;DHT22;5592;49.234;7.268;2023-07-20T08:38:09;35.20;73.60
11079;DHT22;5592;49.234;7.268;2023-07-20T08:40:40;35.20;71.50
11079;DHT22;5592;49.234;7.268;2023-07-20T08:43:06;35.10;69.70
11079;DHT22;5592;49.234;7.268;2023-07-20T08:45:36;34.40;75.10
11079;DHT22;5592;49.234;7.268;2023-07-20T08:48:05;34.40;72.30
11079;DHT22;5592;49.234;7.268;2023-07-20T08:50:32;34.80;75.30
11079;DHT22;5592;49.234;7.268;2023-07-20T08:52:59;35.40;72.60
11079;DHT22;5592;49.234;7.268;2023-07-20T08:55:26;34.70;69.60
11079;DHT22;5592;49.234;7.268;2023-07-20T08:57:56;34.10;72.50
11079;DHT22;5592;49.234;7.268;2023-07-20T09:00:23;34.30;69.90
11079;DHT22;5592;49.234;7.268;2023-07-20T09:02:51;34.80;70.80
11079;DHT22;5592;49.234;7.268;2023-07-20T09:05:17;34.80;69.30
11079;DHT22;5592;49.234;7.268;2023-07-20T09:07:43;33.60;67.40
11079;DHT22;5592;49.234;7.268;2023-07-20T09:10:09;32.00;69.70
11079;DHT22;5592;49.234;7.268;2023-07-20T09:12:37;30.90;76.30
11079;DHT22;5592;49.234;7.268;2023-07-20T09:15:07;30.30;77.30
11079;DHT22;5592;49.234;7.268;2023-07-20T09:17:33;31.10;75.50
11079;DHT22;5592;49.234;7.268;2023-07-20T09:20:05;31.90;77.10
11079;DHT22;5592;49.234;7.268;2023-07-20T09:22:36;32.70;75.40
11079;DHT22;5592;49.234;7.268;2023-07-20T09:25:18;32.90;71.50
11079;DHT22;5592;49.234;7.268;2023-07-20T09:27:49;31.50;70.30
11079;DHT22;5592;49.234;7.268;2023-07-20T09:30:17;29.40;73.80
11079;DHT22;5592;49.234;7.268;2023-07-20T09:32:45;28.60;75.40
11079;DHT22;5592;49.234;7.268;2023-07-20T09:35:15;28.90;76.20
11079;DHT22;5592;49.234;7.268;2023-07-20T09:37:47;29.80;75.40
11079;DHT22;5592;49.234;7.268;2023-07-20T09:40:15;30.50;73.60
11079;DHT22;5592;49.234;7.268;2023-07-20T09:42:42;30.60;71.30
11079;DHT22;5592;49.234;7.268;2023-07-20T09:45:08;29.60;75.40
11079;DHT22;5592;49.234;7.268;2023-07-20T09:47:36;29.10;78.60
11079;DHT22;5592;49.234;7.268;2023-07-20T09:50:04;29.80;74.70
11079;DHT22;5592;49.234;7.268;2023-07-20T09:52:30;31.10;73.50
11079;DHT22;5592;49.234;7.268;2023-07-20T09:54:56;32.30;72.10
11079;DHT22;5592;49.234;7.268;2023-07-20T09:57:23;32.60;71.00
11079;DHT22;5592;49.234;7.268;2023-07-20T09:59:52;32.40;73.60
11079;DHT22;5592;49.234;7.268;2023-07-20T10:02:25;32.10;74.70
11079;DHT22;5592;49.234;7.268;2023-07-20T10:04:54;32.70;74.60
11079;DHT22;5592;49.234;7.268;2023-07-20T10:07:21;33.50;73.40
11079;DHT22;5592;49.234;7.268;2023-07-20T10:09:48;33.90;70.60
11079;DHT22;5592;49.234;7.268;2023-07-20T10:12:17;32.70;69.00
11079;DHT22;5592;49.234;7.268;2023-07-20T10:14:58;31.90;71.10
11079;DHT22;5592;49.234;7.268;2023-07-20T10:17:25;31.30;72.10
11079;DHT22;5592;49.234;7.268;2023-07-20T10:19:54;32.40;72.80
11079;DHT22;5592;49.234;7.268;2023-07-20T10:22:26;33.20;70.50
11079;DHT22;5592;49.234;7.268;2023-07-20T10:24:52;32.70;72.40
11079;DHT22;5592;49.234;7.268;2023-07-20T10:27:24;33.10;70.50
11079;DHT22;5592;49.234;7.268;2023-07-20T10:29:51;33.30;72.80
11079;DHT22;5592;49.234;7.268;2023-07-20T10:32:19;33.10;67.80
11079;DHT22;5592;49.234;7.268;2023-07-20T10:34:51;31.80;70.70
11079;DHT22;5592;49.234;7.268;2023-07-20T10:37:52;31.60;73.00
11079;DHT22;5592;49.234;7.268;2023-07-20T10:40:32;31.30;72.20
11079;DHT22;5592;49.234;7.268;2023-07-20T10:43:08;31.70;71.20
11079;DHT22;5592;49.234;7.268;2023-07-20T10:45:47;31.70;72.00
11079;DHT22;5592;49.234;7.268;2023-07-20T10:48:21;31.00;70.40
11079;DHT22;5592;49.234;7.268;2023-07-20T10:53:35;30.30;73.20
11079;DHT22;5592;49.234;7.268;2023-07-20T10:56:15;30.60;71.80
11079;DHT22;5592;49.234;7.268;2023-07-20T10:58:44;31.20;74.60
11079;DHT22;5592;49.234;7.268;2023-07-20T11:01:16;31.60;72.30
11079;DHT22;5592;49.234;7.268;2023-07-20T11:03:43;31.10;69.80
11079;DHT22;5592;49.234;7.268;2023-07-20T11:09:13;31.30;69.40
11079;DHT22;5592;49.234;7.268;2023-07-20T11:11:41;30.40;65.90
11079;DHT22;5592;49.234;7.268;2023-07-20T11:14:10;29.80;72.50
11079;DHT22;5592;49.234;7.268;2023-07-20T11:19:06;30.50;73.20
11079;DHT22;5592;49.234;7.268;2023-07-20T11:21:39;31.10;71.50
11079;DHT22;5592;49.234;7.268;2023-07-20T11:24:06;31.40;66.30
11079;DHT22;5592;49.234;7.268;2023-07-20T11:26:42;31.40;71.50
11079;DHT22;5592;49.234;7.268;2023-07-20T11:29:08;30.60;70.50
11079;DHT22;5592;49.234;7.268;2023-07-20T11:31:38;29.50;71.10
11079;DHT22;5592;49.234;7.268;2023-07-20T11:34:04;29.00;75.40
11079;DHT22;5592;49.234;7.268;2023-07-20T11:36:30;29.10;74.30
11079;DHT22;5592;49.234;7.268;2023-07-20T11:38:58;29.00;74.10
11079;DHT22;5592;49.234;7.268;2023-07-20T11:41:25;29.00;75.90
11079;DHT22;5592;49.234;7.268;2023-07-20T11:43:51;29.10;74.40
11079;DHT22;5592;49.234;7.268;2023-07-20T11:46:17;29.00;77.90
11079;DHT22;5592;49.234;7.268;2023-07-20T11:48:46;29.10;75.70
11079;DHT22;5592;49.234;7.268;2023-07-20T11:51:16;29.60;74.70
11079;DHT22;5592;49.234;7.268;2023-07-20T11:53:44;29.80;72.80
11079;DHT22;5592;49.234;7.268;2023-07-20T11:56:11;29.70;73.10
11079;DHT22;5592;49.234;7.268;2023-07-20T11:58:42;29.80;72.50
11079;DHT22;5592;49.234;7.268;2023-07-20T12:01:08;29.80;70.70
11079;DHT22;5592;49.234;7.268;2023-07-20T12:03:34;28.90;70.40
11079;DHT22;5592;49.234;7.268;2023-07-20T12:06:10;28.10;72.10
11079;DHT22;5592;49.234;7.268;2023-07-20T12:08:39;27.50;76.10
11079;DHT22;5592;49.234;7.268;2023-07-20T12:11:07;27.10;77.60
11079;DHT22;5592;49.234;7.268;2023-07-20T12:13:50;27.10;79.20
11079;DHT22;5592;49.234;7.268;2023-07-20T12:16:16;27.90;77.10
11079;DHT22;5592;49.234;7.268;2023-07-20T12:18:43;28.30;72.50
11079;DHT22;5592;49.234;7.268;2023-07-20T12:21:10;28.40;73.30
11079;DHT22;5592;49.234;7.268;2023-07-20T12:23:39;28.40;70.20
11079;DHT22;5592;49.234;7.268;2023-07-20T12:26:07;28.60;67.90
11079;DHT22;5592;49.234;7.268;2023-07-20T12:28:42;28.70;68.60
11079;DHT22;5592;49.234;7.268;2023-07-20T12:31:09;28.60;73.00
11079;DHT22;5592;49.234;7.268;2023-07-20T12:33:38;28.70;67.20
11079;DHT22;5592;49.234;7.268;2023-07-20T12:36:04;28.10;69.50
11079;DHT22;5592;49.234;7.268;2023-07-20T12:38:30;27.60;71.30
11079;DHT22;5592;49.234;7.268;2023-07-20T12:40:57;27.60;73.90
11079;DHT22;5592;49.234;7.268;2023-07-20T12:43:26;27.60;70.70
11079;DHT22;5592;49.234;7.268;2023-07-20T12:45:52;27.60;74.70
11079;DHT22;5592;49.234;7.268;2023-07-20T12:48:18;27.90;69.60
11079;DHT22;5592;49.234;7.268;2023-07-20T12:50:44;27.60;68.30
11079;DHT22;5592;49.234;7.268;2023-07-20T12:53:10;27.20;71.40
11079;DHT22;5592;49.234;7.268;2023-07-20T12:55:37;26.90;72.10
11079;DHT22;5592;49.234;7.268;2023-07-20T12:58:02;27.00;73.80
11079;DHT22;5592;49.234;7.268;2023-07-20T13:00:28;26.90;76.40
11079;DHT22;5592;49.234;7.268;2023-07-20T13:02:53;27.10;71.20
11079;DHT22;5592;49.234;7.268;2023-07-20T13:05:19;27.10;70.90
11079;DHT22;5592;49.234;7.268;2023-07-20T13:07:45;27.00;72.40
11079;DHT22;5592;49.234;7.268;2023-07-20T13:10:11;26.70;72.70
11079;DHT22;5592;49.234;7.268;2023-07-20T13:12:37;26.40;74.30
11079;DHT22;5592;49.234;7.268;2023-07-20T13:15:08;26.30;74.20
11079;DHT22;5592;49.234;7.268;2023-07-20T13:17:35;26.20;72.10
11079;DHT22;5592;49.234;7.268;2023-07-20T13:20:02;26.20;73.60
11079;DHT22;5592;49.234;7.268;2023-07-20T13:22:30;26.20;72.10
11079;DHT22;5592;49.234;7.268;2023-07-20T13:24:55;26.00;73.40
11079;DHT22;5592;49.234;7.268;2023-07-20T13:27:21;25.90;75.90
11079;DHT22;5592;49.234;7.268;2023-07-20T13:29:47;25.70;74.50
11079;DHT22;5592;49.234;7.268;2023-07-20T13:32:14;25.70;75.90
11079;DHT22;5592;49.234;7.268;2023-07-20T13:34:44;25.90;74.90
11079;DHT22;5592;49.234;7.268;2023-07-20T13:37:10;26.20;75.00
11079;DHT22;5592;49.234;7.268;2023-07-20T13:39:36;26.10;74.60
11079;DHT22;5592;49.234;7.268;2023-07-20T13:42:02;26.20;73.70
11079;DHT22;5592;49.234;7.268;2023-07-20T13:44:30;26.10;73.00
11079;DHT22;5592;49.234;7.268;2023-07-20T13:46:56;25.90;73.20
11079;DHT22;5592;49.234;7.268;2023-07-20T13:49:22;25.90;72.20
11079;DHT22;5592;49.234;7.268;2023-07-20T13:51:48;25.60;74.40
11079;DHT22;5592;49.234;7.268;2023-07-20T13:54:13;25.40;74.70
11079;DHT22;5592;49.234;7.268;2023-07-20T13:56:39;25.50;76.00
11079;DHT22;5592;49.234;7.268;2023-07-20T13:59:04;25.50;79.10
11079;DHT22;5592;49.234;7.268;2023-07-20T14:01:30;25.60;77.90
11079;DHT22;5592;49.234;7.268;2023-07-20T14:03:58;25.90;76.20
11079;DHT22;5592;49.234;7.268;2023-07-20T14:06:28;26.10;76.40
11079;DHT22;5592;49.234;7.268;2023-07-20T14:08:53;26.20;73.80
11079;DHT22;5592;49.234;7.268;2023-07-20T14:11:19;26.40;70.90
11079;DHT22;5592;49.234;7.268;2023-07-20T14:13:45;26.50;75.60
11079;DHT22;5592;49.234;7.268;2023-07-20T14:16:11;26.60;74.60
11079;DHT22;5592;49.234;7.268;2023-07-20T14:18:36;26.50;74.10
11079;DHT22;5592;49.234;7.268;2023-07-20T14:21:02;26.60;74.30
11079;DHT22;5592;49.234;7.268;2023-07-20T14:23:30;26.70;74.30
11079;DHT22;5592;49.234;7.268;2023-07-20T14:25:56;27.00;74.60
11079;DHT22;5592;49.234;7.268;2023-07-20T14:28:21;27.00;72.30
11079;DHT22;5592;49.234;7.268;2023-07-20T14:30:47;26.90;71.80
11079;DHT22;5592;49.234;7.268;2023-07-20T14:33:12;26.90;72.80
11079;DHT22;5592;49.234;7.268;2023-07-20T14:35:38;26.90;71.10
11079;DHT22;5592;49.234;7.268;2023-07-20T14:38:04;26.60;71.20
11079;DHT22;5592;49.234;7.268;2023-07-20T14:40:29;26.30;71.60
11079;DHT22;5592;49.234;7.268;2023-07-20T14:42:58;26.00;73.70
11079;DHT22;5592;49.234;7.268;2023-07-20T14:45:29;25.90;75.80
11079;DHT22;5592;49.234;7.268;2023-07-20T14:47:55;25.80;76.00
11079;DHT22;5592;49.234;7.268;2023-07-20T14:50:21;25.80;75.90
11079;DHT22;5592;49.234;7.268;2023-07-20T14:52:47;25.90;75.60
11079;DHT22;5592;49.234;7.268;2023-07-20T14:55:12;26.10;73.70
11079;DHT22;5592;49.234;7.268;2023-07-20T14:57:38;26.10;75.30
11079;DHT22;5592;49.234;7.268;2023-07-20T15:00:05;26.00;74.50
11079;DHT22;5592;49.234;7.268;2023-07-20T15:02:36;25.40;74.80
11079;DHT22;5592;49.234;7.268;2023-07-20T15:05:02;25.40;73.80
11079;DHT22;5592;49.234;7.268;2023-07-20T15:07:28;25.30;74.70
11079;DHT22;5592;49.234;7.268;2023-07-20T15:09:54;25.40;73.80
11079;DHT22;5592;49.234;7.268;2023-07-20T15:12:19;25.60;71.90
11079;DHT22;5592;49.234;7.268;2023-07-20T15:15:01;25.80;74.10
11079;DHT22;5592;49.234;7.268;2023-07-20T15:17:27;25.90;72.70
11079;DHT22;5592;49.234;7.268;2023-07-20T15:19:53;25.90;72.30
11079;DHT22;5592;49.234;7.268;2023-07-20T15:22:22;25.80;74.10
11079;DHT22;5592;49.234;7.268;2023-07-20T15:24:47;25.70;74.00
11079;DHT22;5592;49.234;7.268;2023-07-20T15:27:13;25.90;70.60
11079;DHT22;5592;49.234;7.268;2023-07-20T15:29:39;26.00;73.20
11079;DHT22;5592;49.234;7.268;2023-07-20T15:32:05;26.00;73.40
11079;DHT22;5592;49.234;7.268;2023-07-20T15:34:32;25.80;72.10
11079;DHT22;5592;49.234;7.268;2023-07-20T15:36:57;25.80;72.20
11079;DHT22;5592;49.234;7.268;2023-07-20T15:39:23;26.00;71.00
11079;DHT22;5592;49.234;7.268;2023-07-20T15:41:49;26.30;69.60
11079;DHT22;5592;49.234;7.268;2023-07-20T15:44:15;26.40;70.40
11079;DHT22;5592;49.234;7.268;2023-07-20T15:49:06;26.50;70.80
11079;DHT22;5592;49.234;7.268;2023-07-20T15:51:35;26.50;69.10
11079;DHT22;5592;49.234;7.268;2023-07-20T15:54:10;26.40;68.70
11079;DHT22;5592;49.234;7.268;2023-07-20T15:56:40;26.40;70.20
11079;DHT22;5592;49.234;7.268;2023-07-20T15:59:08;26.30;71.50
11079;DHT22;5592;49.234;7.268;2023-07-20T16:01:33;26.30;74.10
11079;DHT22;5592;49.234;7.268;2023-07-20T16:03:59;26.20;71.60
11079;DHT22;5592;49.234;7.268;2023-07-20T16:06:25;26.20;72.00
11079;DHT22;5592;49.234;7.268;2023-07-20T16:08:51;26.20;72.20